Time;durP1;ratioP1;P1;durP2;ratioP2;P2;SDS_P1;SDS_P2;PMS_P1;PMS_P2;Temp;Humidity;BMP_temperature;BMP_pressure;BME280_temperature;BME280_humidity;BME280_pressure;Samples;Min_cycle;Max_cycle;Signal;HPM_P1;HPM_P2
2021/12/23 00:00:58;;;;;;;100.10;47.35;;;;;;;-6.35;100.00;99885.78;2085984;28;20313;-77
2021/12/23 00:01:59;;;;;;;104.72;50.20;;;;;;;-6.36;100.00;99877.19;2101428;28;20571;-74
2021/12/23 00:03:00;;;;;;;95.15;46.10;;;;;;;-6.35;100.00;99878.81;2101479;28;20225;-74
2021/12/23 00:04:02;;;;;;;97.13;47.70;;;;;;;-6.37;100.00;99874.75;2085016;28;20277;-76
2021/12/23 00:05:03;;;;;;;107.65;48.45;;;;;;;-6.36;100.00;99876.38;2085135;28;20234;-76
2021/12/23 00:06:05;;;;;;;101.55;46.65;;;;;;;-6.35;100.00;99870.19;2085038;28;20218;-76
2021/12/23 00:07:07;;;;;;;101.18;48.10;;;;;;;-6.36;100.00;99871.19;2085142;28;20551;-77
2021/12/23 00:08:09;;;;;;;98.13;47.22;;;;;;;-6.37;100.00;99875.56;2085392;28;20226;-76
2021/12/23 00:09:10;;;;;;;101.45;48.58;;;;;;;-6.36;100.00;99868.59;2101630;28;20228;-77
2021/12/23 00:10:12;;;;;;;107.82;47.15;;;;;;;-6.34;100.00;99875.25;2101349;28;20225;-76
2021/12/23 00:11:13;;;;;;;102.10;47.85;;;;;;;-6.35;100.00;99865.81;2085841;28;20231;-77
2021/12/23 00:12:15;;;;;;;98.47;46.70;;;;;;;-6.32;100.00;99872.47;2085844;28;20222;-76
2021/12/23 00:13:18;;;;;;;96.45;47.50;;;;;;;-6.28;100.00;99869.38;2101710;28;20683;-76
2021/12/23 00:14:20;;;;;;;99.85;48.05;;;;;;;-6.22;100.00;99869.69;2093101;28;20669;-74
2021/12/23 00:15:28;;;;;;;100.10;45.83;;;;;;;-6.22;100.00;99869.69;2076745;28;20297;-74
2021/12/23 00:16:42;;;;;;;95.30;48.88;;;;;;;-6.24;100.00;99861.28;2077143;28;20224;-74
2021/12/23 00:17:59;;;;;;;100.28;47.08;;;;;;;-6.29;100.00;99859.97;2077756;28;20306;-74
2021/12/23 00:19:05;;;;;;;98.22;46.88;;;;;;;-6.28;100.00;99864.19;2077164;28;20273;-75
2021/12/23 00:24:02;;;;;;;105.28;47.28;;;;;;;-6.31;100.00;99854.13;2072404;28;20228;-75
2021/12/23 00:25:04;;;;;;;102.13;48.00;;;;;;;-6.31;100.00;99856.75;2076741;28;20739;-75
2021/12/23 00:26:06;;;;;;;103.28;48.47;;;;;;;-6.29;100.00;99857.38;2077494;28;20224;-75
2021/12/23 00:27:07;;;;;;;105.07;48.60;;;;;;;-6.26;100.00;99859.63;2077483;28;20318;-75
2021/12/23 00:28:09;;;;;;;94.32;46.28;;;;;;;-6.27;100.00;99846.81;2076530;28;20282;-76
2021/12/23 00:29:11;;;;;;;96.18;47.70;;;;;;;-6.27;100.00;99846.81;2076645;28;20234;-75
2021/12/23 00:30:12;;;;;;;100.13;48.72;;;;;;;-6.30;100.00;99845.38;2077581;28;20231;-75
2021/12/23 00:31:15;;;;;;;106.23;48.80;;;;;;;-6.31;100.00;99851.53;2077450;28;20251;-75
2021/12/23 00:32:16;;;;;;;106.70;51.78;;;;;;;-6.31;100.00;99845.53;2069135;28;20224;-75
2021/12/23 00:33:18;;;;;;;101.77;50.13;;;;;;;-6.33;100.00;99848.31;2069224;28;20275;-75
2021/12/23 00:34:22;;;;;;;110.22;49.83;;;;;;;-6.33;100.00;99848.31;2068390;28;20235;-75
2021/12/23 00:35:25;;;;;;;101.93;51.17;;;;;;;-6.33;100.00;99850.91;2070076;28;20235;-75
2021/12/23 00:36:28;;;;;;;104.55;51.35;;;;;;;-6.33;100.00;99850.09;2069219;28;20307;-75
2021/12/23 00:37:36;;;;;;;105.10;51.08;;;;;;;-6.38;100.00;99848.00;2068262;28;20231;-75
2021/12/23 00:38:43;;;;;;;106.07;49.78;;;;;;;-6.38;100.00;99847.19;2062834;28;20238;-76
2021/12/23 00:39:45;;;;;;;108.93;53.42;;;;;;;-6.44;100.00;99838.25;2062070;28;20229;-75
2021/12/23 00:40:47;;;;;;;101.95;53.22;;;;;;;-6.45;100.00;99841.84;2070533;28;20679;-75
2021/12/23 00:41:49;;;;;;;114.65;53.03;;;;;;;-6.47;100.00;99835.22;2069208;28;20566;-75
2021/12/23 00:42:54;;;;;;;111.55;51.95;;;;;;;-6.46;100.00;99839.41;2068733;28;20223;-75
2021/12/23 00:43:55;;;;;;;110.47;53.88;;;;;;;-6.48;100.00;99837.00;2066551;28;20677;-75
2021/12/23 00:44:56;;;;;;;120.70;54.53;;;;;;;-6.48;100.00;99831.81;2076550;28;20223;-75
2021/12/23 00:45:57;;;;;;;119.55;57.75;;;;;;;-6.51;100.00;99832.16;2077256;28;20231;-75
2021/12/23 00:47:00;;;;;;;121.03;57.08;;;;;;;-6.51;100.00;99839.94;2076503;28;20602;-75
2021/12/23 00:48:01;;;;;;;117.30;57.25;;;;;;;-6.53;100.00;99834.06;2076576;28;20232;-75
2021/12/23 00:49:05;;;;;;;128.87;58.30;;;;;;;-6.52;100.00;99825.31;2076822;28;20295;-75
2021/12/23 00:50:06;;;;;;;121.43;58.90;;;;;;;-6.52;100.00;99830.50;2076533;28;20315;-75
2021/12/23 00:51:08;;;;;;;114.80;58.28;;;;;;;-6.56;100.00;99824.03;2076073;28;20706;-75
2021/12/23 00:52:09;;;;;;;124.97;57.63;;;;;;;-6.57;100.00;99818.03;2076501;28;20224;-74
2021/12/23 00:53:13;;;;;;;141.47;61.77;;;;;;;-6.56;100.00;99824.03;2077230;28;20310;-75
2021/12/23 00:54:13;;;;;;;129.15;60.38;;;;;;;-6.53;100.00;99818.50;2092767;28;20270;-75
2021/12/23 00:55:16;;;;;;;128.37;60.47;;;;;;;-6.54;100.00;99827.28;2080883;28;20273;-75
2021/12/23 00:56:19;;;;;;;135.02;62.67;;;;;;;-6.56;100.00;99821.44;2070988;28;20746;-74
2021/12/23 00:57:27;;;;;;;136.05;60.67;;;;;;;-6.58;100.00;99818.22;2071124;28;20227;-75
2021/12/23 00:58:28;;;;;;;135.13;59.60;;;;;;;-6.62;100.00;99822.09;2070566;28;20289;-75
2021/12/23 00:59:29;;;;;;;141.38;62.10;;;;;;;-6.64;100.00;99817.09;2062952;28;20217;-74
2021/12/23 01:00:31;;;;;;;138.27;61.90;;;;;;;-6.67;100.00;99816.63;2071042;28;20311;-75
2021/12/23 01:01:32;;;;;;;128.93;60.88;;;;;;;-6.68;100.00;99820.19;2070936;28;20235;-74
2021/12/23 01:02:44;;;;;;;130.85;59.80;;;;;;;-6.69;100.00;99821.13;2079074;28;20225;-75
2021/12/23 01:03:48;;;;;;;141.25;61.60;;;;;;;-6.72;100.00;99821.47;2084500;28;20246;-75
2021/12/23 01:04:48;;;;;;;135.98;61.38;;;;;;;-6.72;100.00;99824.06;2071181;28;20235;-75
2021/12/23 01:05:50;;;;;;;134.87;62.90;;;;;;;-6.73;100.00;99827.66;2062867;28;20224;-75
2021/12/23 01:06:51;;;;;;;147.25;65.43;;;;;;;-6.75;100.00;99827.00;2070984;28;20233;-75
2021/12/23 01:07:52;;;;;;;141.70;63.63;;;;;;;-6.75;100.00;99820.03;2071412;28;20240;-75
2021/12/23 01:08:54;;;;;;;144.85;66.13;;;;;;;-6.76;100.00;99820.22;2070770;28;20236;-75
2021/12/23 01:09:55;;;;;;;142.43;63.88;;;;;;;-6.80;100.00;99818.91;2070987;28;20600;-74
2021/12/23 01:10:59;;;;;;;145.77;63.28;;;;;;;-6.79;100.00;99825.69;2071776;28;20242;-75
2021/12/23 01:12:00;;;;;;;144.35;64.53;;;;;;;-6.79;100.00;99820.50;2070882;28;20295;-75
2021/12/23 01:13:03;;;;;;;144.40;66.13;;;;;;;-6.79;100.00;99829.09;2070952;28;20223;-74
2021/12/23 01:14:25;;;;;;;141.32;65.57;;;;;;;-6.81;100.00;99818.09;2071631;28;20300;-74
2021/12/23 01:15:58;;;;;;;130.63;60.72;;;;;;;-6.78;100.00;99817.75;2070142;28;20266;-75
2021/12/23 01:17:28;;;;;;;140.07;64.30;;;;;;;-6.78;100.00;99814.34;2066539;28;20228;-74
2021/12/23 01:18:37;;;;;;;152.65;64.57;;;;;;;-6.78;100.00;99829.91;2070695;28;20732;-75
2021/12/23 01:19:40;;;;;;;157.95;67.85;;;;;;;-6.76;100.00;99822.81;2070396;28;20216;-75
2021/12/23 01:20:51;;;;;;;151.23;65.55;;;;;;;-6.77;100.00;99829.78;2070856;28;20244;-75
2021/12/23 01:21:52;;;;;;;148.82;64.10;;;;;;;-6.77;100.00;99816.00;2071161;28;20228;-75
2021/12/23 01:22:55;;;;;;;149.97;64.33;;;;;;;-6.79;100.00;99810.13;2070738;28;20239;-74
2021/12/23 01:23:57;;;;;;;145.23;62.72;;;;;;;-6.79;100.00;99820.50;2062881;28;20247;-75
2021/12/23 01:24:58;;;;;;;146.38;65.75;;;;;;;-6.81;100.00;99809.50;2062658;28;20228;-74
2021/12/23 01:26:00;;;;;;;151.30;68.03;;;;;;;-6.81;100.00;99817.28;2070807;28;20224;-75
2021/12/23 01:27:02;;;;;;;157.75;69.95;;;;;;;-6.82;100.00;99808.69;2070837;28;20232;-74
2021/12/23 01:28:04;;;;;;;147.40;68.97;;;;;;;-6.80;100.00;99811.94;2071648;28;20220;-74
2021/12/23 01:29:05;;;;;;;161.52;70.35;;;;;;;-6.81;100.00;99814.69;2071545;28;20251;-75
2021/12/23 01:30:10;;;;;;;143.85;67.40;;;;;;;-6.80;100.00;99808.53;2071596;28;20789;-75
2021/12/23 01:31:12;;;;;;;142.93;66.90;;;;;;;-6.81;100.00;99805.13;2070345;28;20228;-75
2021/12/23 01:32:14;;;;;;;154.02;66.53;;;;;;;-6.86;100.00;99808.22;2070691;28;20311;-74
2021/12/23 01:33:15;;;;;;;154.70;67.53;;;;;;;-6.89;100.00;99805.94;2071515;28;20224;-75
2021/12/23 01:34:18;;;;;;;147.63;67.00;;;;;;;-6.91;100.00;99800.13;2070764;28;20311;-75
2021/12/23 01:35:19;;;;;;;153.88;67.75;;;;;;;-6.93;100.00;99807.25;2070770;28;20228;-75
2021/12/23 01:36:22;;;;;;;155.57;69.77;;;;;;;-6.93;100.00;99812.44;2087027;28;20238;-75
2021/12/23 01:37:23;;;;;;;158.25;72.28;;;;;;;-6.97;100.00;99800.78;2086325;28;20285;-75
2021/12/23 01:38:26;;;;;;;164.23;74.53;;;;;;;-6.97;100.00;99805.97;2070619;28;20720;-75
2021/12/23 01:39:27;;;;;;;160.77;71.45;;;;;;;-7.02;100.00;99805.66;2070758;28;20505;-75
2021/12/23 01:40:29;;;;;;;164.53;73.60;;;;;;;-7.03;100.00;99803.22;2071492;28;20236;-75
2021/12/23 01:41:31;;;;;;;173.52;73.00;;;;;;;-7.05;100.00;99803.38;2087074;28;20232;-75
2021/12/23 01:42:32;;;;;;;167.90;72.57;;;;;;;-7.08;100.00;99790.75;2078885;28;20227;-74
2021/12/23 01:43:34;;;;;;;150.60;67.57;;;;;;;-7.06;100.00;99795.75;2070526;28;20260;-74
2021/12/23 01:44:36;;;;;;;153.23;67.05;;;;;;;-7.08;100.00;99797.72;2071383;28;20265;-75
2021/12/23 01:45:43;;;;;;;154.98;70.13;;;;;;;-7.08;100.00;99789.94;2070958;28;20235;-75
2021/12/23 01:46:45;;;;;;;152.73;66.82;;;;;;;-7.10;100.00;99795.28;2071378;28;20220;-75
2021/12/23 01:47:46;;;;;;;146.65;65.43;;;;;;;-7.09;100.00;99796.91;2070944;28;20228;-74
2021/12/23 01:48:47;;;;;;;154.32;67.93;;;;;;;-7.11;100.00;99796.28;2070640;28;20227;-75
2021/12/23 01:49:50;;;;;;;153.32;68.40;;;;;;;-7.11;100.00;99793.69;2071278;28;20231;-74
2021/12/23 01:50:53;;;;;;;164.88;71.57;;;;;;;-7.11;100.00;99791.09;2071506;28;20220;-74
2021/12/23 01:51:54;;;;;;;165.77;74.95;;;;;;;-7.07;100.00;99794.94;2070645;28;20224;-74
2021/12/23 01:52:58;;;;;;;165.48;71.78;;;;;;;-7.08;100.00;99797.72;2070434;28;20274;-75
2021/12/23 01:54:00;;;;;;;176.02;75.15;;;;;;;-7.12;100.00;99790.28;2063131;28;20239;-75
2021/12/23 01:55:01;;;;;;;174.05;76.95;;;;;;;-7.11;100.00;99791.09;2062408;28;20221;-75
2021/12/23 01:56:04;;;;;;;175.13;75.60;;;;;;;-7.15;100.00;99787.19;2062396;28;20228;-74
2021/12/23 01:57:05;;;;;;;166.43;72.72;;;;;;;-7.12;100.00;99792.88;2054587;28;20461;-75
2021/12/23 01:58:09;;;;;;;164.93;72.13;;;;;;;-7.11;100.00;99788.50;2062501;28;20224;-74
2021/12/23 01:59:11;;;;;;;160.65;73.00;;;;;;;-7.11;100.00;99788.50;2063554;28;20649;-75
2021/12/23 02:00:15;;;;;;;156.50;71.65;;;;;;;-7.12;100.00;99781.69;2062462;28;20244;-75
2021/12/23 02:01:17;;;;;;;149.00;70.40;;;;;;;-7.12;100.00;99786.88;2062435;28;20248;-75
2021/12/23 02:02:17;;;;;;;165.15;68.97;;;;;;;-7.14;100.00;99784.41;2062463;28;20228;-75
2021/12/23 02:03:20;;;;;;;158.65;71.93;;;;;;;-7.13;100.00;99780.03;2063212;28;20268;-75
2021/12/23 02:04:21;;;;;;;146.80;66.85;;;;;;;-7.15;100.00;99785.41;2063172;28;20225;-75
2021/12/23 02:05:25;;;;;;;163.30;69.37;;;;;;;-7.15;100.00;99782.81;2068104;28;20224;-75
2021/12/23 02:06:26;;;;;;;160.35;70.57;;;;;;;-7.18;100.00;99780.56;2070382;28;20595;-75
2021/12/23 02:07:27;;;;;;;155.25;71.03;;;;;;;-7.20;100.00;99776.50;2069769;28;20295;-75
2021/12/23 02:08:28;;;;;;;161.48;74.38;;;;;;;-7.22;100.00;99768.88;2070524;28;20698;-75
2021/12/23 02:09:30;;;;;;;166.70;74.13;;;;;;;-7.26;100.00;99774.56;2071267;28;20613;-75
2021/12/23 02:10:31;;;;;;;157.00;70.50;;;;;;;-7.31;100.00;99764.66;2086744;28;20214;-75
2021/12/23 02:11:33;;;;;;;164.77;73.33;;;;;;;-7.30;100.00;99778.44;2077172;28;20250;-75
2021/12/23 02:12:34;;;;;;;170.52;74.57;;;;;;;-7.32;100.00;99762.25;2070406;28;20698;-75
2021/12/23 02:13:36;;;;;;;174.15;74.70;;;;;;;-7.35;100.00;99773.75;2070330;28;20282;-75
2021/12/23 02:14:37;;;;;;;184.55;78.93;;;;;;;-7.38;100.00;99765.47;2063770;28;20674;-75
2021/12/23 02:15:39;;;;;;;169.00;72.23;;;;;;;-7.42;100.00;99765.81;2054263;28;20327;-75
2021/12/23 02:16:40;;;;;;;174.15;77.40;;;;;;;-7.42;100.00;99767.59;2062344;28;20585;-75
2021/12/23 02:17:42;;;;;;;169.77;76.47;;;;;;;-7.44;100.00;99764.38;2062330;28;20403;-74
2021/12/23 02:18:44;;;;;;;178.07;76.70;;;;;;;-7.47;100.00;99762.91;2062229;28;20711;-75
2021/12/23 02:19:46;;;;;;;174.85;74.80;;;;;;;-7.50;100.00;99755.44;2062431;28;20221;-75
2021/12/23 02:20:50;;;;;;;169.18;76.82;;;;;;;-7.53;100.00;99752.38;2063067;28;20228;-75
2021/12/23 02:21:51;;;;;;;165.32;75.25;;;;;;;-7.56;100.00;99750.91;2062327;28;20229;-75
2021/12/23 02:22:53;;;;;;;163.23;76.47;;;;;;;-7.56;100.00;99750.09;2065827;28;20249;-74
2021/12/23 02:23:54;;;;;;;185.27;77.55;;;;;;;-7.58;100.00;99742.50;2054161;28;20232;-75
2021/12/23 02:24:55;;;;;;;174.90;79.18;;;;;;;-7.58;100.00;99745.09;2054138;28;20289;-74
2021/12/23 02:25:58;;;;;;;177.50;80.10;;;;;;;-7.62;100.00;99736.03;2054219;28;20229;-74
2021/12/23 02:26:59;;;;;;;171.23;77.07;;;;;;;-7.60;100.00;99741.03;2062352;28;20217;-74
2021/12/23 02:28:04;;;;;;;165.13;76.70;;;;;;;-7.64;100.00;99737.97;2063073;28;20286;-76
2021/12/23 02:29:05;;;;;;;159.90;73.47;;;;;;;-7.64;100.00;99737.97;2062998;28;20227;-76
2021/12/23 02:30:10;;;;;;;165.93;75.57;;;;;;;-7.65;100.00;99741.53;2062990;28;20224;-76
2021/12/23 02:31:10;;;;;;;175.65;74.65;;;;;;;-7.68;100.00;99736.69;2064602;28;20699;-76
2021/12/23 02:32:12;;;;;;;162.40;73.13;;;;;;;-7.72;100.00;99738.78;2062411;28;20682;-75
2021/12/23 02:33:13;;;;;;;171.27;73.30;;;;;;;-7.74;100.00;99734.72;2062287;28;20220;-76
2021/12/23 02:34:17;;;;;;;159.67;72.40;;;;;;;-7.77;100.00;99738.44;2078031;28;20699;-76
2021/12/23 02:35:21;;;;;;;168.75;73.55;;;;;;;-7.78;100.00;99736.84;2077366;28;20226;-76
2021/12/23 02:36:26;;;;;;;165.15;71.90;;;;;;;-7.79;100.00;99743.00;2068664;28;20238;-75
2021/12/23 02:37:27;;;;;;;167.63;70.30;;;;;;;-7.83;100.00;99736.50;2071117;28;20239;-76
2021/12/23 02:38:28;;;;;;;165.67;72.73;;;;;;;-7.85;100.00;99735.03;2070955;28;20231;-76
2021/12/23 02:39:29;;;;;;;188.05;75.45;;;;;;;-7.88;100.00;99725.03;2070551;28;20216;-75
2021/12/23 02:40:34;;;;;;;182.88;78.63;;;;;;;-7.90;100.00;99730.38;2078229;28;20271;-76
2021/12/23 02:41:40;;;;;;;172.57;74.50;;;;;;;-7.91;100.00;99727.91;2077992;28;20629;-75
2021/12/23 02:42:42;;;;;;;167.00;75.82;;;;;;;-7.93;100.00;99725.50;2070095;28;20667;-76
2021/12/23 02:43:43;;;;;;;183.52;77.68;;;;;;;-7.97;100.00;99719.03;2070040;28;20235;-75
2021/12/23 02:44:44;;;;;;;191.90;79.07;;;;;;;-8.03;100.00;99715.28;2061848;28;20235;-75
2021/12/23 02:45:47;;;;;;;171.57;75.80;;;;;;;-8.04;100.00;99713.66;2070449;28;20224;-75
2021/12/23 02:46:49;;;;;;;180.82;76.30;;;;;;;-8.03;100.00;99712.69;2070312;28;20302;-76
2021/12/23 02:47:51;;;;;;;188.07;79.43;;;;;;;-8.06;100.00;99712.22;2070950;28;20247;-76
2021/12/23 02:48:52;;;;;;;180.25;76.10;;;;;;;-8.06;100.00;99714.81;2070558;28;20220;-75
2021/12/23 02:49:53;;;;;;;179.60;76.93;;;;;;;-8.10;100.00;99709.13;2070925;28;20223;-76
2021/12/23 02:50:55;;;;;;;180.15;74.70;;;;;;;-8.10;100.00;99714.28;2086494;28;20218;-76
2021/12/23 02:51:58;;;;;;;168.43;73.43;;;;;;;-8.15;100.00;99706.22;2078096;28;20281;-76
2021/12/23 02:52:59;;;;;;;173.30;74.10;;;;;;;-8.14;100.00;99707.03;2078647;28;20215;-75
2021/12/23 02:54:00;;;;;;;180.43;78.20;;;;;;;-8.16;100.00;99706.38;2078173;28;20306;-76
2021/12/23 02:55:03;;;;;;;178.20;76.35;;;;;;;-8.18;100.00;99711.69;2078355;28;20619;-76
2021/12/23 02:56:07;;;;;;;186.65;77.95;;;;;;;-8.20;100.00;99708.47;2078423;28;20648;-76
2021/12/23 02:57:08;;;;;;;175.02;79.35;;;;;;;-8.21;100.00;99714.59;2069947;28;20310;-76
2021/12/23 02:58:10;;;;;;;175.43;76.43;;;;;;;-8.24;100.00;99717.53;2070870;28;20228;-76
2021/12/23 02:59:11;;;;;;;183.32;80.05;;;;;;;-8.24;100.00;99716.72;2071031;28;20599;-76
2021/12/23 03:00:13;;;;;;;183.98;79.13;;;;;;;-8.23;100.00;99716.56;2070052;28;20236;-75
2021/12/23 03:01:16;;;;;;;189.00;80.78;;;;;;;-8.22;100.00;99717.38;2078435;28;20215;-76
2021/12/23 03:02:18;;;;;;;180.27;76.10;;;;;;;-8.20;100.00;99712.84;2078137;28;20246;-75
2021/12/23 03:03:20;;;;;;;184.95;78.15;;;;;;;-8.22;100.00;99712.19;2062136;28;20621;-76
2021/12/23 03:04:23;;;;;;;177.02;77.68;;;;;;;-8.20;100.00;99708.47;2070295;28;20310;-75
2021/12/23 03:05:24;;;;;;;169.98;76.72;;;;;;;-8.21;100.00;99701.66;2069525;28;20588;-76
2021/12/23 03:06:26;;;;;;;185.48;80.35;;;;;;;-8.21;100.00;99701.66;2078069;28;20224;-75
2021/12/23 03:07:30;;;;;;;180.63;77.47;;;;;;;-8.26;100.00;99696.16;2078125;28;20228;-76
2021/12/23 03:08:35;;;;;;;189.23;80.93;;;;;;;-8.26;100.00;99693.56;2070120;28;20679;-76
2021/12/23 03:09:37;;;;;;;178.55;77.63;;;;;;;-8.26;100.00;99704.72;2070092;28;20307;-76
2021/12/23 03:10:38;;;;;;;193.48;78.70;;;;;;;-8.27;100.00;99697.94;2069642;28;20224;-75
2021/12/23 03:11:40;;;;;;;180.10;78.13;;;;;;;-8.27;100.00;99704.88;2070811;28;20759;-75
2021/12/23 03:12:41;;;;;;;175.13;80.07;;;;;;;-8.27;100.00;99697.13;2070904;28;20277;-76
2021/12/23 03:13:43;;;;;;;182.60;79.20;;;;;;;-8.29;100.00;99699.06;2069903;28;20258;-75
2021/12/23 03:14:45;;;;;;;191.98;80.95;;;;;;;-8.28;100.00;99700.69;2061949;28;20694;-76
2021/12/23 03:15:47;;;;;;;188.40;80.22;;;;;;;-8.31;100.00;99688.06;2070109;28;20567;-76
2021/12/23 03:16:49;;;;;;;193.25;77.65;;;;;;;-8.29;100.00;99699.06;2070883;28;20236;-76
2021/12/23 03:17:51;;;;;;;171.73;80.22;;;;;;;-8.31;100.00;99686.28;2069970;28;20226;-75
2021/12/23 03:18:52;;;;;;;176.38;79.80;;;;;;;-8.32;100.00;99678.69;2069516;28;20720;-75
2021/12/23 03:19:53;;;;;;;191.23;79.90;;;;;;;-8.30;100.00;99679.34;2086318;28;20658;-75
2021/12/23 03:20:55;;;;;;;180.40;77.07;;;;;;;-8.31;100.00;99681.13;2086260;28;20233;-76
2021/12/23 03:21:57;;;;;;;184.52;78.70;;;;;;;-8.33;100.00;99682.25;2086307;28;20284;-75
2021/12/23 03:22:59;;;;;;;193.10;79.82;;;;;;;-8.34;100.00;99678.03;2086272;28;20246;-75
2021/12/23 03:24:01;;;;;;;177.77;79.68;;;;;;;-8.32;100.00;99683.88;2070736;28;20227;-76
2021/12/23 03:25:02;;;;;;;186.30;79.10;;;;;;;-8.32;100.00;99678.69;2070644;28;20232;-76
2021/12/23 03:26:04;;;;;;;177.07;77.60;;;;;;;-8.34;100.00;99681.44;2070782;28;20719;-76
2021/12/23 03:27:06;;;;;;;184.98;80.07;;;;;;;-8.38;100.00;99674.97;2070740;28;20220;-76
2021/12/23 03:28:07;;;;;;;175.40;78.85;;;;;;;-8.37;100.00;99676.59;2069477;28;20232;-75
2021/12/23 03:29:12;;;;;;;177.07;78.85;;;;;;;-8.37;100.00;99676.59;2062069;28;20236;-75
2021/12/23 03:30:13;;;;;;;187.98;77.13;;;;;;;-8.36;100.00;99680.00;2063892;28;20228;-76
2021/12/23 03:31:15;;;;;;;164.73;75.90;;;;;;;-8.53;100.00;99655.88;2062649;28;20283;-75
2021/12/23 03:32:15;;;;;;;175.18;76.25;;;;;;;-8.35;100.00;99679.81;2062592;28;20220;-76
2021/12/23 03:33:18;;;;;;;178.27;77.67;;;;;;;-8.37;100.00;99673.22;2062538;28;20336;-75
2021/12/23 03:34:18;;;;;;;185.43;76.22;;;;;;;-8.36;100.00;99677.41;2062553;28;20244;-75
2021/12/23 03:35:20;;;;;;;176.93;77.67;;;;;;;-8.38;100.00;99680.16;2065494;28;20271;-76
2021/12/23 03:36:22;;;;;;;187.25;80.13;;;;;;;-8.38;100.00;99679.34;2057802;28;20592;-76
2021/12/23 03:37:24;;;;;;;173.52;75.88;;;;;;;-8.40;100.00;99676.13;2063473;28;20263;-75
2021/12/23 03:38:26;;;;;;;179.73;79.60;;;;;;;-8.39;100.00;99672.56;2062485;28;20251;-75
2021/12/23 03:39:28;;;;;;;190.50;78.57;;;;;;;-8.42;100.00;99668.53;2061854;28;20575;-76
2021/12/23 03:40:29;;;;;;;179.73;80.80;;;;;;;-8.42;100.00;99670.31;2053738;28;20225;-75
2021/12/23 03:41:30;;;;;;;175.43;78.63;;;;;;;-8.46;100.00;99677.56;2061944;28;20324;-75
2021/12/23 03:42:31;;;;;;;177.10;77.35;;;;;;;-8.46;100.00;99680.13;2062638;28;20228;-76
2021/12/23 03:43:34;;;;;;;176.25;77.50;;;;;;;-8.49;100.00;99662.34;2062321;28;20260;-76
2021/12/23 03:44:36;;;;;;;176.20;74.65;;;;;;;-8.48;100.00;99663.16;2061868;28;20643;-76
2021/12/23 03:45:37;;;;;;;173.18;79.72;;;;;;;-8.47;100.00;99669.97;2061133;28;20225;-75
2021/12/23 03:46:39;;;;;;;177.55;80.93;;;;;;;-8.47;100.00;99659.59;2062586;28;20230;-76
2021/12/23 03:47:40;;;;;;;186.38;79.68;;;;;;;-8.49;100.00;99651.19;2061762;28;20229;-76
2021/12/23 03:48:42;;;;;;;180.35;77.93;;;;;;;-8.47;100.00;99655.25;2061757;28;20300;-76
2021/12/23 03:49:44;;;;;;;191.02;78.35;;;;;;;-8.46;100.00;99658.63;2061789;28;20231;-76
2021/12/23 03:50:47;;;;;;;187.43;79.88;;;;;;;-8.47;100.00;99659.59;2061847;28;20228;-75
2021/12/23 03:51:48;;;;;;;181.00;80.55;;;;;;;-8.45;100.00;99657.66;2061808;28;20707;-76
2021/12/23 03:52:49;;;;;;;179.40;81.70;;;;;;;-8.42;100.00;99652.19;2061584;28;20243;-76
2021/12/23 03:53:52;;;;;;;186.35;80.80;;;;;;;-8.42;100.00;99652.19;2061784;28;20223;-76
2021/12/23 03:54:53;;;;;;;183.27;78.63;;;;;;;-8.40;100.00;99650.25;2073125;28;20231;-76
2021/12/23 03:55:56;;;;;;;185.77;79.87;;;;;;;-8.39;100.00;99651.88;2061635;28;20308;-75
2021/12/23 03:56:57;;;;;;;192.38;81.75;;;;;;;-8.37;100.00;99649.91;2061609;28;20611;-76
2021/12/23 03:57:59;;;;;;;187.00;82.07;;;;;;;-8.33;100.00;99646.03;2061207;28;20224;-75
2021/12/23 03:59:01;;;;;;;182.43;81.35;;;;;;;-8.32;100.00;99648.44;2061835;28;20224;-76
2021/12/23 04:00:02;;;;;;;202.48;85.90;;;;;;;-8.28;100.00;99651.50;2062573;28;20229;-75
2021/12/23 04:01:06;;;;;;;187.38;79.13;;;;;;;-8.27;100.00;99643.59;2062442;28;20221;-75
2021/12/23 04:02:08;;;;;;;193.15;81.63;;;;;;;-8.27;100.00;99641.00;2068373;28;20224;-75
2021/12/23 04:03:10;;;;;;;194.18;80.20;;;;;;;-8.28;100.00;99641.97;2070674;28;20582;-75
2021/12/23 04:04:12;;;;;;;200.95;81.90;;;;;;;-8.31;100.00;99636.31;2070591;28;20702;-75
2021/12/23 04:05:15;;;;;;;191.57;80.95;;;;;;;-8.29;100.00;99642.13;2069889;28;20575;-75
2021/12/23 04:06:17;;;;;;;182.70;78.50;;;;;;;-8.28;100.00;99648.94;2069819;28;20381;-75
2021/12/23 04:07:17;;;;;;;185.05;77.85;;;;;;;-8.29;100.00;99642.94;2069688;28;20232;-76
2021/12/23 04:08:19;;;;;;;181.37;81.07;;;;;;;-8.30;100.00;99640.53;2069966;28;20307;-75
2021/12/23 04:09:22;;;;;;;179.93;80.55;;;;;;;-8.31;100.00;99636.31;2070500;28;20223;-76
2021/12/23 04:10:23;;;;;;;178.73;78.00;;;;;;;-8.32;100.00;99635.50;2069316;28;20223;-75
2021/12/23 04:11:25;;;;;;;174.95;77.40;;;;;;;-8.34;100.00;99626.28;2069961;28;20220;-76
2021/12/23 04:12:26;;;;;;;183.13;81.15;;;;;;;-8.35;100.00;99632.44;2077795;28;20595;-75
2021/12/23 04:13:28;;;;;;;174.87;76.33;;;;;;;-8.34;100.00;99632.28;2069825;28;20352;-75
2021/12/23 04:14:30;;;;;;;178.27;79.15;;;;;;;-8.36;100.00;99623.06;2069738;28;20223;-76
2021/12/23 04:15:31;;;;;;;173.30;73.88;;;;;;;-8.35;100.00;99630.66;2086106;28;20218;-76
2021/12/23 04:16:32;;;;;;;178.60;79.60;;;;;;;-8.35;100.00;99619.50;2077951;28;20307;-76
2021/12/23 04:17:35;;;;;;;193.93;79.45;;;;;;;-8.35;100.00;99625.50;2069719;28;20245;-76
2021/12/23 04:18:37;;;;;;;194.70;81.03;;;;;;;-8.36;100.00;99620.47;2085928;28;20637;-76
2021/12/23 04:19:39;;;;;;;176.25;78.53;;;;;;;-8.35;100.00;99628.09;2077417;28;20219;-76
2021/12/23 04:20:53;;;;;;;183.23;75.28;;;;;;;-8.32;100.00;99621.75;2069723;28;20273;-76
2021/12/23 04:21:55;;;;;;;170.27;72.47;;;;;;;-8.29;100.00;99624.84;2069331;28;20624;-75
2021/12/23 04:22:56;;;;;;;174.63;75.18;;;;;;;-8.30;100.00;99622.41;2061754;28;20220;-75
2021/12/23 04:23:59;;;;;;;164.87;73.27;;;;;;;-8.28;100.00;99621.28;2061575;28;20308;-76
2021/12/23 04:25:02;;;;;;;164.43;72.47;;;;;;;-8.21;100.00;99624.03;2069757;28;20302;-75
2021/12/23 04:26:07;;;;;;;171.45;74.95;;;;;;;-8.20;100.00;99630.81;2069728;28;20257;-75
2021/12/23 04:27:08;;;;;;;186.60;75.47;;;;;;;-8.18;100.00;99622.88;2069491;28;20245;-75
2021/12/23 04:28:10;;;;;;;169.10;74.53;;;;;;;-8.18;100.00;99628.88;2069634;28;20224;-75
2021/12/23 04:29:11;;;;;;;166.98;75.35;;;;;;;-8.13;100.00;99626.63;2069731;28;20239;-76
2021/12/23 04:30:13;;;;;;;164.15;74.05;;;;;;;-8.13;100.00;99631.00;2069930;28;20591;-75
2021/12/23 04:31:17;;;;;;;171.70;74.00;;;;;;;-8.13;100.00;99628.41;2072182;28;20262;-75
2021/12/23 04:32:19;;;;;;;164.35;75.68;;;;;;;-8.16;100.00;99624.38;2071146;28;20312;-76
2021/12/23 04:33:20;;;;;;;158.70;72.75;;;;;;;-8.06;100.00;99627.59;2071203;28;20236;-76
2021/12/23 04:34:21;;;;;;;163.23;74.80;;;;;;;-8.05;100.00;99631.81;2071188;28;20608;-75
2021/12/23 04:35:23;;;;;;;170.93;72.90;;;;;;;-8.04;100.00;99620.47;2062586;28;20228;-76
2021/12/23 04:36:27;;;;;;;167.07;72.45;;;;;;;-8.03;100.00;99621.28;2071268;28;20597;-76
2021/12/23 04:37:29;;;;;;;166.13;70.28;;;;;;;-7.98;100.00;99621.63;2072006;28;20244;-76
2021/12/23 04:38:32;;;;;;;173.85;72.60;;;;;;;-8.01;100.00;99614.97;2071964;28;20311;-75
2021/12/23 04:39:33;;;;;;;165.82;72.30;;;;;;;-8.01;100.00;99620.13;2071459;28;20254;-76
2021/12/23 04:40:37;;;;;;;158.87;73.43;;;;;;;-7.98;100.00;99617.25;2079390;28;20227;-75
2021/12/23 04:41:38;;;;;;;159.10;72.63;;;;;;;-7.95;100.00;99620.47;2086940;28;20238;-76
2021/12/23 04:42:40;;;;;;;164.95;73.43;;;;;;;-7.97;100.00;99621.44;2071860;28;20224;-76
2021/12/23 04:43:42;;;;;;;163.48;72.00;;;;;;;-7.93;100.00;99621.09;2070923;28;20286;-76
2021/12/23 04:44:43;;;;;;;166.55;68.78;;;;;;;-7.94;100.00;99622.09;2063114;28;20706;-75
2021/12/23 04:45:45;;;;;;;156.50;69.10;;;;;;;-7.93;100.00;99621.09;2071031;28;20286;-75